createdAt,value
2018-05-11T00:01:30.403Z,4.70
2018-05-11T00:03:57.848Z,4.50
2018-05-11T00:06:26.079Z,4.70
2018-05-11T00:08:53.542Z,4.23
2018-05-11T00:11:20.988Z,4.30
2018-05-11T00:13:48.436Z,4.27
2018-05-11T00:16:15.898Z,4.60
2018-05-11T00:18:43.337Z,4.70
2018-05-11T00:21:11.569Z,4.50
2018-05-11T00:23:39.018Z,4.37
2018-05-11T00:26:06.526Z,4.93
2018-05-11T00:28:34.748Z,4.40
2018-05-11T00:31:02.184Z,4.73
2018-05-11T00:33:30.404Z,4.60
2018-05-11T00:35:57.851Z,4.80
2018-05-11T00:38:25.311Z,4.60
2018-05-11T00:40:52.752Z,4.37
2018-05-11T00:43:20.204Z,4.80
2018-05-11T00:45:48.431Z,4.90
2018-05-11T00:48:15.893Z,4.90
2018-05-11T00:50:43.335Z,5.10
2018-05-11T00:53:10.804Z,5.20
2018-05-11T00:55:51.220Z,4.97
2018-05-11T00:58:18.682Z,5.63
2018-05-11T01:00:46.135Z,4.60
2018-05-11T01:03:13.593Z,5.30
2018-05-11T01:05:41.066Z,5.97
2018-05-11T01:08:08.530Z,6.30
2018-05-11T01:10:35.981Z,5.77
2018-05-11T01:13:03.504Z,5.47
2018-05-11T01:15:31.028Z,5.20
2018-05-11T01:17:58.472Z,5.60
2018-05-11T01:20:25.920Z,5.50
2018-05-11T01:22:53.398Z,6.27
2018-05-11T01:25:20.841Z,5.57
2018-05-11T01:27:48.299Z,5.90
2018-05-11T01:30:15.749Z,5.63
2018-05-11T01:32:43.208Z,6.77
2018-05-11T01:35:10.659Z,5.70
2018-05-11T01:37:38.133Z,4.63
2018-05-11T01:40:05.585Z,4.70
2018-05-11T01:42:33.051Z,4.80
2018-05-11T01:45:00.516Z,4.40
2018-05-11T01:47:27.969Z,4.50
2018-05-11T01:49:55.448Z,4.77
2018-05-11T01:52:22.914Z,4.73
2018-05-11T01:54:50.359Z,4.83
2018-05-11T01:57:17.821Z,4.87
2018-05-11T01:59:45.267Z,5.27
2018-05-11T02:02:12.731Z,5.00
2018-05-11T02:04:40.211Z,5.17
2018-05-11T02:07:07.670Z,5.03
2018-05-11T02:09:35.133Z,5.10
2018-05-11T02:12:02.576Z,4.87
2018-05-11T02:14:30.805Z,5.33
2018-05-11T02:16:58.271Z,5.23
2018-05-11T02:19:25.755Z,5.17
2018-05-11T02:21:53.213Z,5.47
2018-05-11T02:24:20.659Z,5.43
2018-05-11T02:26:48.111Z,5.90
2018-05-11T02:29:15.580Z,5.80
2018-05-11T02:31:43.038Z,6.07
2018-05-11T02:34:10.499Z,6.00
2018-05-11T02:36:37.959Z,5.83
2018-05-11T02:39:05.409Z,6.57
2018-05-11T02:41:32.860Z,7.47
2018-05-11T02:44:00.325Z,8.83
2018-05-11T02:46:27.768Z,7.27
2018-05-11T02:48:55.228Z,6.87
2018-05-11T02:51:22.681Z,7.43
2018-05-11T02:53:50.895Z,6.80
2018-05-11T02:56:18.360Z,6.30
2018-05-11T02:58:45.796Z,6.43
2018-05-11T03:01:14.016Z,6.10
2018-05-11T03:03:42.231Z,5.87
2018-05-11T03:06:09.709Z,6.33
2018-05-11T03:08:37.911Z,6.30
2018-05-11T03:11:05.391Z,5.57
2018-05-11T03:13:32.836Z,5.50
2018-05-11T03:16:00.317Z,6.03
2018-05-11T03:18:27.829Z,5.33
2018-05-11T03:20:55.223Z,5.40
2018-05-11T03:23:22.665Z,5.30
2018-05-11T03:25:50.875Z,5.03
2018-05-11T03:28:18.332Z,5.93
2018-05-11T03:30:45.829Z,4.80
2018-05-11T03:33:13.252Z,5.33
2018-05-11T03:35:40.704Z,5.97
2018-05-11T03:38:08.176Z,6.30
2018-05-11T03:40:35.638Z,5.60
2018-05-11T03:43:03.092Z,6.07
2018-05-11T03:45:30.570Z,5.33
2018-05-11T03:47:57.983Z,6.17
2018-05-11T03:50:25.492Z,5.40
2018-05-11T03:52:52.921Z,5.80
2018-05-11T03:55:21.156Z,4.97
2018-05-11T03:57:48.600Z,5.53
2018-05-11T04:00:16.054Z,4.90
2018-05-11T04:02:55.466Z,5.13
2018-05-11T04:05:35.633Z,5.60
2018-05-11T04:08:15.742Z,4.20
2018-05-11T04:10:43.193Z,3.67
2018-05-11T04:13:10.644Z,4.50
2018-05-11T04:15:38.103Z,4.70
2018-05-11T04:18:06.313Z,3.90
2018-05-11T04:20:33.772Z,4.37
2018-05-11T04:23:01.339Z,4.60
2018-05-11T04:25:28.788Z,4.53
2018-05-11T04:27:57.008Z,4.63
2018-05-11T04:30:25.208Z,5.17
2018-05-11T04:32:52.666Z,5.77
2018-05-11T04:35:20.122Z,5.80
2018-05-11T04:37:47.580Z,6.17
2018-05-11T04:40:15.036Z,5.40
2018-05-11T04:42:43.237Z,6.57
2018-05-11T04:45:10.805Z,5.63
2018-05-11T04:47:38.314Z,4.67
2018-05-11T04:50:05.756Z,7.03
2018-05-11T04:52:33.223Z,5.50
2018-05-11T04:55:01.429Z,5.43
2018-05-11T04:57:28.882Z,5.60
2018-05-11T04:59:56.332Z,6.17
2018-05-11T05:02:23.780Z,5.67
2018-05-11T05:04:51.220Z,6.03
2018-05-11T05:07:18.665Z,6.47
2018-05-11T05:09:46.101Z,6.80
2018-05-11T05:12:13.578Z,6.53
2018-05-11T05:14:41.809Z,6.87
2018-05-11T05:17:09.257Z,7.23
2018-05-11T05:19:36.689Z,7.67
2018-05-11T05:22:04.142Z,8.40
2018-05-11T05:24:32.359Z,10.10
2018-05-11T05:27:00.205Z,9.83
2018-05-11T05:29:27.720Z,9.47
2018-05-11T05:31:55.133Z,8.37
2018-05-11T05:34:22.600Z,10.43
2018-05-11T05:36:50.076Z,11.00
2018-05-11T05:39:17.594Z,10.87
2018-05-11T05:41:44.990Z,9.60
2018-05-11T05:44:12.464Z,9.00
2018-05-11T05:46:39.911Z,8.37
2018-05-11T05:49:07.368Z,8.67
2018-05-11T05:51:34.819Z,8.43
2018-05-11T05:54:03.065Z,9.07
2018-05-11T05:56:30.502Z,7.37
2018-05-11T05:58:57.979Z,7.10
2018-05-11T06:01:25.428Z,7.87
2018-05-11T06:03:52.906Z,6.60
2018-05-11T06:06:20.347Z,6.80
2018-05-11T06:08:47.816Z,10.50
2018-05-11T06:11:15.275Z,8.93
2018-05-11T06:13:42.752Z,8.40
2018-05-11T06:16:10.222Z,8.07
2018-05-11T06:18:37.631Z,8.03
2018-05-11T06:21:05.844Z,7.73
2018-05-11T06:23:33.325Z,6.80
2018-05-11T06:26:00.767Z,6.60
2018-05-11T06:28:28.224Z,7.00
2018-05-11T06:30:55.665Z,6.73
2018-05-11T06:33:23.140Z,7.03
2018-05-11T06:35:50.579Z,5.90
2018-05-11T06:38:18.807Z,7.17
2018-05-11T06:40:46.249Z,6.17
2018-05-11T06:43:13.697Z,6.17
2018-05-11T06:45:41.177Z,7.67
2018-05-11T06:48:08.635Z,6.17
2018-05-11T06:50:36.087Z,7.53
2018-05-11T06:53:03.529Z,6.53
2018-05-11T06:55:31.753Z,6.60
2018-05-11T06:57:59.224Z,6.37
2018-05-11T07:00:26.689Z,7.90
2018-05-11T07:02:54.919Z,7.43
2018-05-11T07:05:23.155Z,6.80
2018-05-11T07:07:50.654Z,7.10
2018-05-11T07:10:18.073Z,7.30
2018-05-11T07:12:45.535Z,7.13
2018-05-11T07:15:12.997Z,7.37
2018-05-11T07:17:40.459Z,8.70
2018-05-11T07:20:08.700Z,7.93
2018-05-11T07:22:36.140Z,6.60
2018-05-11T07:25:04.367Z,6.80
2018-05-11T07:27:31.817Z,6.80
2018-05-11T07:29:59.288Z,6.70
2018-05-11T07:32:26.728Z,6.57
2018-05-11T07:34:54.229Z,6.33
2018-05-11T07:37:22.383Z,6.10
2018-05-11T07:39:49.873Z,6.77
2018-05-11T07:42:17.307Z,6.13
2018-05-11T07:44:44.757Z,6.67
2018-05-11T07:47:12.193Z,6.50
2018-05-11T07:49:39.632Z,6.10
2018-05-11T07:52:07.087Z,6.10
2018-05-11T07:54:34.542Z,5.97
2018-05-11T07:57:01.968Z,6.03
2018-05-11T07:59:29.426Z,5.60
2018-05-11T08:01:56.888Z,6.33
2018-05-11T08:04:25.110Z,6.00
2018-05-11T08:06:52.573Z,6.20
2018-05-11T08:09:20.011Z,6.00
2018-05-11T08:11:47.465Z,5.87
2018-05-11T08:14:15.000Z,5.67
2018-05-11T08:16:42.342Z,5.97
2018-05-11T08:19:09.859Z,6.70
2018-05-11T08:21:37.293Z,6.00
2018-05-11T08:24:05.507Z,6.97
2018-05-11T08:26:32.965Z,6.77
2018-05-11T08:29:00.424Z,7.05
2018-05-11T08:31:27.882Z,7.30
2018-05-11T08:33:55.317Z,6.83
2018-05-11T08:36:23.526Z,6.30
2018-05-11T08:38:50.964Z,6.57
2018-05-11T08:41:19.186Z,7.10
2018-05-11T08:43:46.633Z,6.72
2018-05-11T08:46:14.091Z,7.10
2018-05-11T08:48:41.543Z,7.93
2018-05-11T08:51:08.996Z,7.95
2018-05-11T08:53:37.227Z,7.82
2018-05-11T08:56:04.667Z,8.05
2018-05-11T08:58:32.124Z,8.43
2018-05-11T09:00:59.574Z,7.55
2018-05-11T09:03:27.045Z,7.93
2018-05-11T09:05:54.489Z,7.40
2018-05-11T09:08:22.718Z,8.68
2018-05-11T09:10:50.179Z,8.18
2018-05-11T09:13:17.633Z,7.57
2018-05-11T09:15:45.062Z,8.02
2018-05-11T09:18:12.553Z,7.57
2018-05-11T09:20:40.016Z,7.87
2018-05-11T09:23:07.479Z,7.75
2018-05-11T09:25:34.915Z,7.50
2018-05-11T09:28:02.355Z,8.23
2018-05-11T09:30:30.566Z,7.50
2018-05-11T09:32:58.028Z,8.18
2018-05-11T09:35:25.495Z,6.55
2018-05-11T09:37:52.950Z,7.10
2018-05-11T09:40:20.378Z,7.93
2018-05-11T09:42:48.609Z,7.25
2018-05-11T09:45:16.072Z,7.70
2018-05-11T09:47:43.544Z,7.30
2018-05-11T09:50:10.980Z,8.20
2018-05-11T09:52:38.444Z,8.38
2018-05-11T09:55:05.978Z,7.03
2018-05-11T09:57:34.109Z,8.98
2018-05-11T10:00:01.560Z,7.47
2018-05-11T10:02:29.017Z,8.35
2018-05-11T10:04:56.464Z,10.18
2018-05-11T10:07:23.936Z,10.55
2018-05-11T10:09:51.392Z,10.35
2018-05-11T10:12:18.845Z,8.80
2018-05-11T10:14:47.056Z,10.75
2018-05-11T10:17:14.512Z,10.80
2018-05-11T10:19:41.978Z,9.95
2018-05-11T10:22:09.415Z,9.13
2018-05-11T10:24:36.889Z,9.65
2018-05-11T10:27:04.326Z,9.60
2018-05-11T10:29:32.708Z,10.60
2018-05-11T10:32:00.909Z,10.35
2018-05-11T10:34:28.422Z,10.75
2018-05-11T10:36:55.834Z,9.73
2018-05-11T10:39:24.222Z,9.88
2018-05-11T10:41:51.684Z,10.35
2018-05-11T10:44:19.192Z,10.95
2018-05-11T10:46:46.635Z,8.85
2018-05-11T10:49:14.084Z,9.68
2018-05-11T10:51:41.541Z,10.13
2018-05-11T10:54:09.061Z,11.38
2018-05-11T10:56:37.648Z,12.77
2018-05-11T10:59:05.108Z,12.25
2018-05-11T11:01:32.597Z,11.18
2018-05-11T11:04:00.083Z,12.18
2018-05-11T11:06:27.560Z,12.90
2018-05-11T11:08:55.095Z,11.30
2018-05-11T11:11:23.297Z,10.98
2018-05-11T11:13:50.776Z,12.00
2018-05-11T11:16:18.266Z,11.32
2018-05-11T11:18:45.728Z,10.65
2018-05-11T11:21:13.184Z,10.68
2018-05-11T11:23:40.631Z,10.93
2018-05-11T11:26:08.108Z,12.50
2018-05-11T11:28:35.548Z,10.27
2018-05-11T11:31:02.993Z,12.95
2018-05-11T11:33:30.453Z,13.18
2018-05-11T11:35:57.891Z,13.32
2018-05-11T11:38:25.371Z,13.85
2018-05-11T11:40:52.820Z,14.05
2018-05-11T11:43:20.297Z,11.68
2018-05-11T11:45:47.758Z,12.25
2018-05-11T11:48:15.221Z,13.00
2018-05-11T11:50:42.684Z,11.40
2018-05-11T11:53:10.127Z,15.10
2018-05-11T11:55:41.234Z,12.77
2018-05-11T11:58:09.424Z,13.85
2018-05-11T12:00:36.874Z,12.75
2018-05-11T12:03:05.333Z,13.05
2018-05-11T12:05:32.803Z,11.60
2018-05-11T12:08:00.265Z,13.48
2018-05-11T12:10:27.722Z,14.45
2018-05-11T12:12:55.164Z,12.20
2018-05-11T12:15:22.638Z,15.13
2018-05-11T12:17:50.073Z,13.50
2018-05-11T12:20:17.551Z,12.77
2018-05-11T12:22:45.000Z,14.43
2018-05-11T12:25:12.455Z,13.93
2018-05-11T12:27:40.688Z,13.88
2018-05-11T12:30:08.152Z,12.20
2018-05-11T12:32:35.719Z,12.32
2018-05-11T12:35:03.155Z,13.40
2018-05-11T12:37:30.623Z,13.65
2018-05-11T12:39:58.075Z,11.65
2018-05-11T12:42:25.620Z,10.55
2018-05-11T12:44:53.838Z,10.85
2018-05-11T12:47:21.308Z,13.27
2018-05-11T12:49:49.484Z,12.10
2018-05-11T12:52:16.947Z,12.00
2018-05-11T12:54:44.416Z,13.30
2018-05-11T12:57:11.870Z,12.05
2018-05-11T12:59:39.336Z,12.35
2018-05-11T13:02:06.796Z,10.48
2018-05-11T13:04:34.263Z,10.32
2018-05-11T13:07:01.719Z,12.75
2018-05-11T13:09:29.161Z,10.57
2018-05-11T13:11:56.615Z,12.02
2018-05-11T13:14:24.056Z,11.95
2018-05-11T13:16:52.291Z,10.95
2018-05-11T13:19:19.751Z,12.07
2018-05-11T13:21:47.211Z,10.90
2018-05-11T13:24:14.678Z,11.65
2018-05-11T13:26:42.897Z,11.38
2018-05-11T13:29:10.367Z,11.55
2018-05-11T13:31:38.591Z,14.10
2018-05-11T13:34:06.076Z,12.43
2018-05-11T13:36:33.520Z,12.85
2018-05-11T13:39:00.986Z,16.08
2018-05-11T13:41:28.437Z,10.60
2018-05-11T13:43:55.884Z,11.88
2018-05-11T13:46:23.328Z,10.93
2018-05-11T13:48:50.787Z,11.95
2018-05-11T13:51:18.237Z,11.20
2018-05-11T13:53:46.485Z,9.38
2018-05-11T13:56:13.959Z,12.63
2018-05-11T13:58:41.379Z,10.50
2018-05-11T14:01:08.838Z,13.18
2018-05-11T14:03:36.375Z,12.05
2018-05-11T14:06:03.752Z,12.65
2018-05-11T14:08:31.213Z,10.25
2018-05-11T14:10:58.670Z,11.60
2018-05-11T14:13:26.124Z,11.07
2018-05-11T14:15:54.431Z,11.10
2018-05-11T14:18:21.882Z,10.40
2018-05-11T14:20:49.336Z,9.80
2018-05-11T14:23:16.798Z,9.75
2018-05-11T14:25:45.010Z,11.98
2018-05-11T14:28:12.466Z,12.05
2018-05-11T14:30:39.905Z,12.60
2018-05-11T14:33:07.378Z,11.12
2018-05-11T14:35:34.815Z,11.07
2018-05-11T14:38:03.053Z,11.90
2018-05-11T14:40:30.496Z,13.23
2018-05-11T14:42:57.948Z,13.35
2018-05-11T14:45:25.411Z,12.30
2018-05-11T14:47:52.872Z,11.93
2018-05-11T14:50:20.338Z,13.07
2018-05-11T14:52:47.788Z,10.55
2018-05-11T14:55:15.241Z,11.00
2018-05-11T14:57:43.465Z,11.52
2018-05-11T15:00:10.927Z,9.95
2018-05-11T15:02:38.390Z,10.45
2018-05-11T15:05:05.849Z,9.73
2018-05-11T15:07:33.306Z,9.65
2018-05-11T15:10:00.763Z,10.32
2018-05-11T15:12:28.223Z,9.73
2018-05-11T15:14:55.681Z,10.40
2018-05-11T15:17:23.126Z,10.52
2018-05-11T15:19:51.344Z,8.40
2018-05-11T15:22:18.796Z,10.35
2018-05-11T15:24:46.268Z,10.25
2018-05-11T15:27:13.700Z,8.07
2018-05-11T15:29:41.160Z,10.70
2018-05-11T15:32:08.619Z,9.70
2018-05-11T15:34:36.073Z,9.40
2018-05-11T15:37:04.285Z,10.57
2018-05-11T15:39:31.749Z,9.57
2018-05-11T15:41:59.212Z,10.10
2018-05-11T15:44:26.661Z,9.00
2018-05-11T15:46:54.107Z,9.60
2018-05-11T15:49:21.568Z,8.90
2018-05-11T15:51:49.775Z,7.85
2018-05-11T15:54:17.234Z,7.78
2018-05-11T15:56:44.751Z,8.35
2018-05-11T15:59:12.955Z,7.82
2018-05-11T16:01:40.410Z,7.43
2018-05-11T16:04:08.617Z,7.72
2018-05-11T16:06:36.083Z,7.60
2018-05-11T16:09:03.553Z,8.35
2018-05-11T16:11:31.008Z,7.35
2018-05-11T16:13:58.445Z,6.93
2018-05-11T16:16:25.889Z,8.32
2018-05-11T16:18:54.094Z,7.72
2018-05-11T16:21:21.548Z,8.35
2018-05-11T16:23:49.775Z,8.30
2018-05-11T16:26:17.243Z,7.25
2018-05-11T16:28:44.672Z,7.45
2018-05-11T16:31:12.127Z,7.07
2018-05-11T16:33:39.555Z,6.95
2018-05-11T16:36:07.783Z,6.68
2018-05-11T16:38:35.249Z,7.43
2018-05-11T16:41:02.696Z,7.07
2018-05-11T16:43:30.143Z,7.20
2018-05-11T16:45:57.606Z,7.75
2018-05-11T16:48:25.068Z,7.18
2018-05-11T16:50:52.523Z,6.05
2018-05-11T16:53:20.748Z,7.22
2018-05-11T16:55:48.173Z,7.72
2018-05-11T16:58:15.621Z,7.12
2018-05-11T17:00:43.811Z,7.03
2018-05-11T17:03:11.267Z,6.50
2018-05-11T17:05:39.498Z,7.65
2018-05-11T17:08:06.965Z,7.35
2018-05-11T17:10:34.375Z,7.15
2018-05-11T17:13:01.833Z,7.68
2018-05-11T17:15:30.060Z,6.50
2018-05-11T17:17:57.525Z,6.60
2018-05-11T17:20:24.961Z,7.75
2018-05-11T17:22:52.529Z,6.82
2018-05-11T17:25:19.864Z,6.55
2018-05-11T17:27:48.090Z,6.82
2018-05-11T17:30:15.558Z,6.90
2018-05-11T17:32:43.764Z,7.87
2018-05-11T17:35:11.981Z,6.97
2018-05-11T17:37:39.428Z,6.72
2018-05-11T17:40:06.897Z,7.07
2018-05-11T17:42:35.117Z,7.35
2018-05-11T17:45:02.582Z,7.05
2018-05-11T17:47:30.041Z,7.80
2018-05-11T17:49:57.484Z,6.68
2018-05-11T17:52:24.940Z,6.70
2018-05-11T17:54:52.375Z,7.15
2018-05-11T17:57:20.581Z,8.02
2018-05-11T17:59:48.023Z,8.40
2018-05-11T18:02:15.489Z,8.80
2018-05-11T18:04:42.944Z,10.13
2018-05-11T18:07:11.154Z,7.65
2018-05-11T18:09:38.619Z,8.68
2018-05-11T18:12:06.129Z,8.27
2018-05-11T18:14:33.508Z,9.18
2018-05-11T18:17:01.723Z,8.45
2018-05-11T18:19:29.173Z,8.73
2018-05-11T18:21:56.609Z,8.23
2018-05-11T18:24:24.840Z,8.27
2018-05-11T18:26:52.288Z,7.97
2018-05-11T18:29:19.745Z,8.25
2018-05-11T18:31:47.196Z,7.95
2018-05-11T18:34:14.637Z,9.02
2018-05-11T18:36:42.843Z,8.23
2018-05-11T18:39:10.307Z,8.70
2018-05-11T18:41:37.768Z,9.43
2018-05-11T18:44:05.219Z,8.75
2018-05-11T18:46:32.693Z,8.98
2018-05-11T18:49:00.150Z,9.10
2018-05-11T18:51:27.600Z,8.63
2018-05-11T18:53:56.184Z,9.65
2018-05-11T18:56:23.268Z,8.38
2018-05-11T18:58:50.732Z,8.18
2018-05-11T19:01:18.187Z,8.48
2018-05-11T19:03:45.641Z,8.82
2018-05-11T19:06:13.078Z,8.85
2018-05-11T19:08:41.312Z,9.38
2018-05-11T19:11:08.762Z,8.88
2018-05-11T19:13:36.187Z,8.38
2018-05-11T19:16:04.414Z,8.88
2018-05-11T19:18:31.864Z,8.38
2018-05-11T19:20:59.319Z,8.80
2018-05-11T19:23:26.770Z,9.55
2018-05-11T19:25:54.236Z,10.50
2018-05-11T19:28:21.675Z,9.05
2018-05-11T19:30:49.956Z,9.05
2018-05-11T19:33:18.161Z,9.18
2018-05-11T19:35:45.636Z,8.65
2018-05-11T19:38:13.092Z,8.82
2018-05-11T19:40:40.585Z,9.25
2018-05-11T19:43:08.796Z,8.50
2018-05-11T19:45:37.023Z,8.93
2018-05-11T19:48:04.477Z,9.38
2018-05-11T19:50:31.933Z,9.02
2018-05-11T19:52:59.408Z,8.52
2018-05-11T19:55:26.860Z,8.82
2018-05-11T19:57:54.301Z,8.80
2018-05-11T20:00:22.520Z,9.55
2018-05-11T20:02:49.963Z,9.02
2018-05-11T20:05:17.426Z,9.52
2018-05-11T20:07:44.882Z,9.27
2018-05-11T20:10:12.354Z,9.32
2018-05-11T20:12:39.804Z,10.95
2018-05-11T20:15:07.261Z,10.75
2018-05-11T20:17:34.722Z,10.70
2018-05-11T20:20:02.182Z,10.20
2018-05-11T20:22:29.708Z,11.77
2018-05-11T20:24:57.255Z,10.05
2018-05-11T20:27:24.608Z,11.00
2018-05-11T20:29:52.089Z,10.95
2018-05-11T20:32:19.544Z,11.95
2018-05-11T20:34:46.991Z,10.85
2018-05-11T20:37:14.474Z,12.13
2018-05-11T20:39:41.916Z,14.10
2018-05-11T20:42:09.404Z,13.32
2018-05-11T20:44:36.869Z,13.88
2018-05-11T20:47:04.336Z,12.45
2018-05-11T20:49:31.795Z,12.55
2018-05-11T20:51:59.249Z,11.98
2018-05-11T20:54:26.698Z,10.93
2018-05-11T20:56:54.162Z,12.55
2018-05-11T20:59:22.062Z,12.82
2018-05-11T21:01:49.588Z,11.32
2018-05-11T21:04:19.696Z,11.75
2018-05-11T21:06:48.028Z,12.20
2018-05-11T21:09:15.477Z,11.40
2018-05-11T21:11:42.957Z,11.85
2018-05-11T21:14:10.409Z,12.10
2018-05-11T21:16:37.860Z,13.02
2018-05-11T21:19:05.332Z,13.38
2018-05-11T21:21:32.781Z,10.93
2018-05-11T21:24:00.239Z,12.07
2018-05-11T21:26:27.886Z,11.98
2018-05-11T21:28:55.342Z,13.10
2018-05-11T21:31:22.802Z,13.48
2018-05-11T21:33:50.258Z,11.85
2018-05-11T21:36:17.737Z,12.15
2018-05-11T21:38:45.210Z,13.60
2018-05-11T21:41:12.768Z,14.65
2018-05-11T21:43:40.120Z,16.95
2018-05-11T21:46:07.595Z,17.08
2018-05-11T21:48:35.044Z,16.75
2018-05-11T21:51:02.514Z,15.15
2018-05-11T21:53:29.969Z,13.85
2018-05-11T21:55:57.421Z,13.25
2018-05-11T21:58:24.883Z,14.00
2018-05-11T22:00:52.336Z,14.73
2018-05-11T22:03:20.570Z,14.55
2018-05-11T22:05:48.023Z,14.60
2018-05-11T22:08:15.476Z,14.77
2018-05-11T22:10:42.925Z,15.20
2018-05-11T22:13:10.395Z,13.57
2018-05-11T22:15:37.854Z,14.02
2018-05-11T22:18:05.311Z,15.57
2018-05-11T22:20:32.741Z,15.70
2018-05-11T22:23:00.960Z,15.13
2018-05-11T22:25:28.433Z,15.55
2018-05-11T22:27:55.902Z,13.88
2018-05-11T22:30:23.351Z,14.38
2018-05-11T22:32:50.806Z,14.63
2018-05-11T22:35:18.244Z,14.13
2018-05-11T22:37:45.698Z,14.25
2018-05-11T22:40:13.928Z,15.70
2018-05-11T22:42:41.377Z,17.90
2018-05-11T22:45:08.825Z,16.95
2018-05-11T22:47:36.294Z,16.58
2018-05-11T22:50:03.732Z,16.23
2018-05-11T22:52:31.977Z,14.87
2018-05-11T22:55:00.196Z,14.87
2018-05-11T22:57:27.654Z,14.52
2018-05-11T22:59:55.887Z,14.55
2018-05-11T23:02:24.106Z,14.38
2018-05-11T23:04:52.349Z,14.65
2018-05-11T23:24:39.069Z,15.07
2018-05-11T23:27:06.512Z,14.90
2018-05-11T23:29:34.732Z,15.60
2018-05-11T23:32:02.184Z,15.98
2018-05-11T23:34:29.638Z,16.70
2018-05-11T23:36:57.083Z,15.73
2018-05-11T23:39:25.301Z,16.02
2018-05-11T23:41:52.753Z,15.20
2018-05-11T23:44:20.235Z,15.45
2018-05-11T23:46:47.665Z,13.60
2018-05-11T23:49:15.146Z,14.02
2018-05-11T23:51:42.600Z,14.85
2018-05-11T23:54:10.049Z,14.85
2018-05-11T23:56:37.508Z,15.55
2018-05-11T23:59:04.964Z,16.00
